You are listening to:
KFIT CTAF - Fitchburg, Massachusetts, United States

KFIT 051652Z AUTO 29004KT 10SM 05/M09 A3037 RMK AO2 SLP289 T00501089 $

If stream doesn't start automatically press the play button
If stream stops then reload player then press play